Time;durP1;ratioP1;P1;durP2;ratioP2;P2;SDS_P1;SDS_P2;PMS_P1;PMS_P2;Temp;Humidity;BMP_temperature;BMP_pressure;BME280_temperature;BME280_humidity;BME280_pressure;Samples;Min_cycle;Max_cycle;Signal;HPM_P1;HPM_P2
2021/08/30 00:00:10;;;;;;;4.72;2.45;;;14.30;99.90;;;;;;4878071;29;20049;-68
2021/08/30 00:02:38;;;;;;;4.70;2.30;;;14.30;99.90;;;;;;4883106;29;20143;-68
2021/08/30 00:05:07;;;;;;;4.20;2.47;;;14.30;99.90;;;;;;4888386;29;20413;-68
2021/08/30 00:07:34;;;;;;;5.03;2.58;;;14.30;99.90;;;;;;4882114;29;20069;-68
2021/08/30 00:10:05;;;;;;;6.47;2.60;;;14.30;99.90;;;;;;4892670;29;20563;-68
2021/08/30 00:12:32;;;;;;;3.85;2.35;;;14.20;99.90;;;;;;4891727;29;20046;-68
2021/08/30 00:14:59;;;;;;;5.25;2.90;;;14.20;99.90;;;;;;4893192;29;20044;-68
2021/08/30 00:17:26;;;;;;;4.88;2.35;;;14.20;99.90;;;;;;4890611;29;20051;-68
2021/08/30 00:19:53;;;;;;;4.32;2.65;;;14.20;99.90;;;;;;4888270;29;20055;-68
2021/08/30 00:22:21;;;;;;;4.82;2.67;;;14.20;99.90;;;;;;4891238;29;20048;-68
2021/08/30 00:24:48;;;;;;;4.57;2.60;;;14.20;99.90;;;;;;4891830;29;20049;-68
2021/08/30 00:27:15;;;;;;;5.70;2.70;;;14.20;99.90;;;;;;4891300;29;20525;-68
2021/08/30 00:29:42;;;;;;;4.50;2.53;;;14.20;99.90;;;;;;4889960;29;20075;-68
2021/08/30 00:32:10;;;;;;;5.10;2.45;;;14.20;99.90;;;;;;4889165;29;20068;-67
2021/08/30 00:34:37;;;;;;;4.93;2.80;;;14.20;99.90;;;;;;4892753;29;20151;-67
2021/08/30 00:37:04;;;;;;;5.38;2.40;;;14.20;99.90;;;;;;4892935;29;20411;-67
2021/08/30 00:39:32;;;;;;;4.95;2.72;;;14.20;99.90;;;;;;4892878;29;20516;-67
2021/08/30 00:41:59;;;;;;;5.70;2.90;;;14.20;99.90;;;;;;4894190;29;20144;-67
2021/08/30 00:44:28;;;;;;;4.60;2.83;;;14.20;99.90;;;;;;4892281;29;20083;-67
2021/08/30 00:46:56;;;;;;;4.78;2.95;;;14.20;99.90;;;;;;4901918;29;20468;-67
2021/08/30 00:49:23;;;;;;;5.13;3.03;;;14.20;99.90;;;;;;4892530;29;20056;-67
2021/08/30 00:51:51;;;;;;;6.32;3.05;;;14.20;99.90;;;;;;4892784;29;20495;-67
2021/08/30 00:54:20;;;;;;;4.35;3.00;;;14.10;99.90;;;;;;4893795;29;20444;-67
2021/08/30 00:56:48;;;;;;;6.45;3.65;;;14.10;99.90;;;;;;4891613;29;20563;-67
2021/08/30 00:59:16;;;;;;;5.45;3.38;;;14.10;99.90;;;;;;4874188;29;20049;-67
2021/08/30 01:01:43;;;;;;;5.57;2.55;;;14.10;99.90;;;;;;4886413;29;20609;-67
2021/08/30 01:04:13;;;;;;;5.25;2.95;;;14.10;99.90;;;;;;4891112;29;20387;-67
2021/08/30 01:06:50;;;;;;;6.47;3.50;;;14.10;99.90;;;;;;4884684;29;20124;-67
2021/08/30 01:09:51;;;;;;;6.05;3.20;;;14.10;99.90;;;;;;4892212;29;20067;-67
2021/08/30 01:12:33;;;;;;;5.30;3.50;;;14.00;99.90;;;;;;4887041;29;20048;-67
2021/08/30 01:15:17;;;;;;;6.50;3.38;;;14.10;99.90;;;;;;4888077;29;20399;-67
2021/08/30 01:17:46;;;;;;;5.97;3.33;;;14.00;99.90;;;;;;4880927;29;20045;-67
2021/08/30 01:20:52;;;;;;;6.93;4.10;;;14.10;99.90;;;;;;4882516;29;20592;-67
2021/08/30 01:23:22;;;;;;;6.13;3.65;;;14.00;99.90;;;;;;4883843;29;20071;-67
2021/08/30 01:25:52;;;;;;;5.22;3.42;;;14.00;99.90;;;;;;4883345;29;20496;-67
2021/08/30 01:28:23;;;;;;;7.63;3.45;;;14.00;99.90;;;;;;4882653;29;20531;-67
2021/08/30 01:30:54;;;;;;;4.88;3.05;;;14.00;99.90;;;;;;4892674;29;20492;-67
2021/08/30 01:33:23;;;;;;;5.95;3.65;;;14.00;99.90;;;;;;4902412;29;20483;-67
2021/08/30 01:35:51;;;;;;;6.53;3.60;;;14.00;99.90;;;;;;4893677;29;20056;-67
2021/08/30 01:38:19;;;;;;;5.40;3.40;;;14.00;99.90;;;;;;4885967;29;20067;-67
2021/08/30 01:40:47;;;;;;;5.05;3.20;;;14.00;99.90;;;;;;4888491;29;20047;-67
2021/08/30 01:43:15;;;;;;;5.28;3.67;;;14.00;99.90;;;;;;4890034;29;20045;-67
2021/08/30 01:45:43;;;;;;;6.50;3.20;;;14.00;99.90;;;;;;4892984;29;20059;-67
2021/08/30 01:48:11;;;;;;;7.05;3.75;;;14.00;99.90;;;;;;4891167;29;20058;-67
2021/08/30 01:50:40;;;;;;;5.78;3.47;;;14.00;99.90;;;;;;4881037;29;20059;-67
2021/08/30 01:53:09;;;;;;;6.40;3.33;;;14.00;99.90;;;;;;4879533;29;20048;-67
2021/08/30 01:55:51;;;;;;;5.53;3.17;;;14.00;99.90;;;;;;4887200;29;20055;-67
2021/08/30 02:00:52;;;;;;;4.85;3.10;;;13.90;99.90;;;;;;4893877;29;20300;-67
2021/08/30 02:03:29;;;;;;;5.75;3.03;;;13.90;99.90;;;;;;4891312;29;20140;-67
2021/08/30 02:05:59;;;;;;;4.72;2.85;;;13.90;99.90;;;;;;4894464;29;20474;-67
2021/08/30 02:08:29;;;;;;;5.30;3.00;;;13.90;99.90;;;;;;4894043;29;20080;-67
2021/08/30 02:11:02;;;;;;;6.60;2.97;;;13.90;99.90;;;;;;4894760;29;20484;-67
2021/08/30 02:13:29;;;;;;;4.57;2.80;;;13.90;99.90;;;;;;4894062;29;20519;-67
2021/08/30 02:16:00;;;;;;;5.13;3.05;;;13.90;99.90;;;;;;4882697;29;20051;-67
2021/08/30 02:18:46;;;;;;;5.82;3.20;;;14.00;99.90;;;;;;4887819;29;20076;-67
2021/08/30 02:21:18;;;;;;;5.45;3.40;;;13.90;99.90;;;;;;4906290;29;20044;-67
2021/08/30 02:24:23;;;;;;;7.32;3.17;;;13.90;99.90;;;;;;4895643;29;20070;-67
2021/08/30 02:27:14;;;;;;;5.82;3.47;;;13.90;99.90;;;;;;4888472;29;20060;-67
2021/08/30 02:29:52;;;;;;;5.68;3.72;;;14.00;99.90;;;;;;4889910;29;20082;-67
2021/08/30 02:32:21;;;;;;;7.05;3.97;;;14.00;99.90;;;;;;4899175;29;20399;-67
2021/08/30 02:34:51;;;;;;;6.80;3.42;;;14.00;99.90;;;;;;4895023;29;20057;-67
2021/08/30 02:37:21;;;;;;;6.18;3.33;;;14.00;99.90;;;;;;4895266;29;20048;-67
2021/08/30 02:39:50;;;;;;;4.45;2.78;;;14.00;99.90;;;;;;4896291;29;20067;-67
2021/08/30 02:42:18;;;;;;;4.90;3.00;;;14.00;99.90;;;;;;4895913;29;20437;-67
2021/08/30 02:44:47;;;;;;;6.57;3.17;;;14.00;99.90;;;;;;4895769;29;20057;-67
2021/08/30 02:47:16;;;;;;;5.05;2.85;;;14.10;99.90;;;;;;4893057;29;20531;-67
2021/08/30 02:49:45;;;;;;;5.38;3.08;;;14.10;99.90;;;;;;4892073;29;20805;-67
2021/08/30 02:52:18;;;;;;;4.97;2.97;;;14.10;99.90;;;;;;4894750;29;20052;-67
2021/08/30 02:54:47;;;;;;;4.70;3.13;;;14.10;99.90;;;;;;4895027;29;20040;-67
2021/08/30 02:57:15;;;;;;;4.13;2.70;;;14.10;99.90;;;;;;4894569;29;20127;-67
2021/08/30 02:59:43;;;;;;;5.35;2.72;;;14.10;99.90;;;;;;4895831;29;20049;-67
2021/08/30 03:02:12;;;;;;;5.68;3.72;;;14.10;99.90;;;;;;4904649;29;20041;-67
2021/08/30 03:04:39;;;;;;;6.95;4.25;;;14.10;99.90;;;;;;4879119;29;20049;-67
2021/08/30 03:07:07;;;;;;;6.82;3.90;;;14.10;99.90;;;;;;4892258;29;20053;-67
2021/08/30 03:09:35;;;;;;;5.88;3.38;;;14.20;99.90;;;;;;4894589;29;20051;-67
2021/08/30 03:12:03;;;;;;;5.97;3.45;;;14.20;99.90;;;;;;4893672;29;20533;-67
2021/08/30 03:14:31;;;;;;;6.35;3.75;;;14.20;99.90;;;;;;4894059;29;20164;-67
2021/08/30 03:17:01;;;;;;;6.70;3.35;;;14.20;99.90;;;;;;4893879;29;20059;-67
2021/08/30 03:19:29;;;;;;;6.00;2.80;;;14.20;99.90;;;;;;4892823;29;20048;-67
2021/08/30 03:21:59;;;;;;;4.70;2.60;;;14.20;99.90;;;;;;4894338;29;20087;-67
2021/08/30 03:24:28;;;;;;;6.32;3.10;;;14.20;99.90;;;;;;4894190;29;20556;-67
2021/08/30 03:26:56;;;;;;;10.55;4.65;;;14.20;99.90;;;;;;4892605;29;20585;-67
2021/08/30 03:29:24;;;;;;;5.32;2.83;;;14.20;99.90;;;;;;4894854;29;20045;-67
2021/08/30 03:31:52;;;;;;;6.22;2.50;;;14.10;99.90;;;;;;4901808;29;20044;-67
2021/08/30 03:34:21;;;;;;;7.00;2.97;;;14.10;99.90;;;;;;4878053;29;20063;-67
2021/08/30 03:36:49;;;;;;;8.30;2.97;;;14.10;99.90;;;;;;4894397;29;20491;-67
2021/08/30 03:39:17;;;;;;;4.78;2.35;;;14.00;99.90;;;;;;4892339;29;20047;-67
2021/08/30 03:41:46;;;;;;;3.80;2.00;;;14.00;99.90;;;;;;4896355;29;20420;-67
2021/08/30 03:44:14;;;;;;;3.70;2.10;;;14.00;99.90;;;;;;4890156;29;20397;-67
2021/08/30 03:46:42;;;;;;;2.75;1.70;;;14.00;99.90;;;;;;4892667;29;20052;-67
2021/08/30 03:49:10;;;;;;;3.72;2.22;;;13.90;99.90;;;;;;4877868;29;20069;-67
2021/08/30 03:51:40;;;;;;;4.00;2.60;;;13.90;99.90;;;;;;4889928;29;20544;-67
2021/08/30 03:54:08;;;;;;;5.13;2.88;;;13.90;99.90;;;;;;4892944;29;20354;-67
2021/08/30 03:56:37;;;;;;;5.22;2.53;;;13.90;99.90;;;;;;4894822;29;20164;-67
2021/08/30 03:59:05;;;;;;;3.78;2.30;;;13.90;99.90;;;;;;4894533;29;20048;-67
2021/08/30 04:01:33;;;;;;;4.35;2.25;;;13.90;99.90;;;;;;4893433;29;20411;-67
2021/08/30 04:04:06;;;;;;;3.47;2.13;;;13.90;99.90;;;;;;4892381;29;20052;-67
2021/08/30 04:06:34;;;;;;;4.28;2.28;;;13.90;99.90;;;;;;4882321;29;20110;-67
2021/08/30 04:09:02;;;;;;;4.32;2.42;;;13.90;99.90;;;;;;4891676;29;20056;-66
2021/08/30 04:11:30;;;;;;;4.68;2.50;;;13.80;99.90;;;;;;4893217;29;20063;-67
2021/08/30 04:13:57;;;;;;;3.95;2.67;;;13.90;99.90;;;;;;4893349;29;20575;-66
2021/08/30 04:16:24;;;;;;;7.30;3.38;;;13.80;99.90;;;;;;4893568;29;20044;-66
2021/08/30 04:18:52;;;;;;;4.22;3.17;;;13.80;99.90;;;;;;4892677;29;20052;-67
2021/08/30 04:21:19;;;;;;;6.05;3.13;;;13.80;99.90;;;;;;4883603;29;20048;-67
2021/08/30 04:23:46;;;;;;;5.63;3.88;;;13.90;99.90;;;;;;4906322;29;20547;-68
2021/08/30 04:26:14;;;;;;;5.60;3.83;;;13.80;99.90;;;;;;4893396;29;20047;-66
2021/08/30 04:28:41;;;;;;;6.18;3.53;;;13.80;99.90;;;;;;4881684;29;20040;-68
2021/08/30 04:31:08;;;;;;;7.57;4.35;;;13.80;99.90;;;;;;4873461;29;20056;-68
2021/08/30 04:33:36;;;;;;;7.50;4.15;;;13.80;99.90;;;;;;4894308;29;20044;-68
2021/08/30 04:36:03;;;;;;;6.28;4.18;;;13.80;99.90;;;;;;4893097;29;20060;-68
2021/08/30 04:38:31;;;;;;;7.05;3.67;;;13.80;99.90;;;;;;4890047;29;20543;-68
2021/08/30 04:40:58;;;;;;;6.97;3.88;;;13.80;99.90;;;;;;4891267;29;20037;-68
2021/08/30 04:43:26;;;;;;;6.55;4.20;;;13.80;99.90;;;;;;4891815;29;20068;-68
2021/08/30 04:45:53;;;;;;;6.20;3.90;;;13.80;99.90;;;;;;4891175;29;20048;-68
2021/08/30 04:48:21;;;;;;;7.10;4.03;;;13.80;99.90;;;;;;4891938;29;20060;-68
2021/08/30 04:50:48;;;;;;;6.00;4.10;;;13.80;99.90;;;;;;4883402;29;20045;-68
2021/08/30 04:53:15;;;;;;;6.65;4.28;;;13.80;99.90;;;;;;4894427;29;20090;-68
2021/08/30 04:55:42;;;;;;;6.40;4.10;;;13.80;99.90;;;;;;4892729;29;20045;-68
2021/08/30 04:58:11;;;;;;;7.50;4.05;;;13.80;99.90;;;;;;4893797;29;20071;-68
2021/08/30 05:00:39;;;;;;;7.05;4.05;;;13.80;99.90;;;;;;4890491;29;20516;-68
2021/08/30 05:03:07;;;;;;;5.90;3.92;;;13.80;99.90;;;;;;4887638;29;20524;-68
2021/08/30 05:05:34;;;;;;;5.93;3.70;;;13.80;99.90;;;;;;4891951;29;20463;-68
2021/08/30 05:08:02;;;;;;;6.47;3.85;;;13.80;99.90;;;;;;4891269;29;20131;-68
2021/08/30 05:10:30;;;;;;;5.72;3.80;;;13.80;99.90;;;;;;4892522;29;20048;-68
2021/08/30 05:12:57;;;;;;;7.22;3.63;;;13.80;99.90;;;;;;4879900;29;20477;-68
2021/08/30 05:15:25;;;;;;;6.15;3.53;;;13.80;99.90;;;;;;4875269;29;20457;-68
2021/08/30 05:17:52;;;;;;;5.38;3.65;;;13.80;99.90;;;;;;4892040;29;20046;-68
2021/08/30 05:20:20;;;;;;;6.28;4.10;;;13.80;99.90;;;;;;4891301;29;20080;-68
2021/08/30 05:22:47;;;;;;;6.32;3.58;;;13.90;99.90;;;;;;4892687;29;20427;-66
2021/08/30 05:25:15;;;;;;;6.75;4.18;;;13.90;99.90;;;;;;4885050;29;20476;-66
2021/08/30 05:27:44;;;;;;;6.93;4.30;;;13.90;99.90;;;;;;4895124;29;20558;-66
2021/08/30 05:30:12;;;;;;;5.70;4.40;;;14.00;99.90;;;;;;4897353;29;20056;-66
2021/08/30 05:32:39;;;;;;;8.10;4.32;;;14.00;99.90;;;;;;4899257;29;20040;-68
2021/08/30 05:35:07;;;;;;;7.80;3.97;;;14.10;99.90;;;;;;4897321;29;20180;-68
2021/08/30 05:37:34;;;;;;;5.40;3.97;;;14.10;99.90;;;;;;4894341;29;20041;-68
2021/08/30 05:40:02;;;;;;;8.15;5.47;;;14.10;99.90;;;;;;4889543;29;20040;-67
2021/08/30 05:42:30;;;;;;;8.00;4.95;;;14.20;99.90;;;;;;4893693;29;20053;-68
2021/08/30 05:44:58;;;;;;;7.45;4.95;;;14.20;99.90;;;;;;4897708;29;20056;-68
2021/08/30 05:47:25;;;;;;;6.75;4.22;;;14.20;99.90;;;;;;4894152;29;20068;-68
2021/08/30 05:49:53;;;;;;;6.78;4.50;;;14.20;99.90;;;;;;4894569;29;20055;-69
2021/08/30 05:52:23;;;;;;;6.80;4.80;;;14.30;99.90;;;;;;4896493;29;20052;-68
2021/08/30 05:54:51;;;;;;;7.88;3.83;;;14.40;99.90;;;;;;4891647;29;20052;-68
2021/08/30 05:57:18;;;;;;;6.75;3.75;;;14.50;99.90;;;;;;4897670;29;20048;-68
2021/08/30 05:59:46;;;;;;;9.38;5.70;;;14.50;99.90;;;;;;4896333;29;20055;-68
2021/08/30 06:02:14;;;;;;;6.13;3.92;;;14.60;99.90;;;;;;4893352;29;20056;-68
2021/08/30 06:04:41;;;;;;;5.65;3.25;;;14.60;99.90;;;;;;4884075;29;20053;-68
2021/08/30 06:07:09;;;;;;;8.50;4.90;;;14.70;99.90;;;;;;4893505;29;20112;-68
2021/08/30 06:09:37;;;;;;;5.03;3.30;;;14.60;99.90;;;;;;4896838;29;20465;-68
2021/08/30 06:12:04;;;;;;;6.30;3.95;;;14.60;99.90;;;;;;4891619;29;20058;-67
2021/08/30 06:14:31;;;;;;;4.95;3.10;;;14.70;99.90;;;;;;4886931;29;20052;-68
2021/08/30 06:16:59;;;;;;;5.35;3.28;;;14.70;99.90;;;;;;4896661;29;20376;-68
2021/08/30 06:19:26;;;;;;;5.78;3.08;;;14.70;99.90;;;;;;4889571;29;20040;-68
2021/08/30 06:21:53;;;;;;;4.22;3.15;;;14.70;99.90;;;;;;4891734;29;20041;-68
2021/08/30 06:24:21;;;;;;;6.13;2.90;;;14.70;99.90;;;;;;4894566;29;20066;-68
2021/08/30 06:26:48;;;;;;;5.90;3.25;;;14.80;99.90;;;;;;4895925;29;20037;-68
2021/08/30 06:29:15;;;;;;;6.75;4.10;;;14.80;99.90;;;;;;4887595;29;20045;-68
2021/08/30 06:31:42;;;;;;;5.57;3.65;;;14.90;99.90;;;;;;4900607;29;20048;-68
2021/08/30 06:34:10;;;;;;;7.68;4.30;;;14.90;99.90;;;;;;4885000;29;20045;-68
2021/08/30 06:36:38;;;;;;;6.72;4.00;;;15.00;99.90;;;;;;4894914;29;20055;-66
2021/08/30 06:39:05;;;;;;;6.05;4.07;;;15.10;99.90;;;;;;4895911;29;20060;-68
2021/08/30 06:41:32;;;;;;;6.22;3.45;;;15.20;99.90;;;;;;4902069;29;20037;-68
2021/08/30 06:44:00;;;;;;;7.75;5.32;;;15.20;99.90;;;;;;4883808;29;20053;-68
2021/08/30 06:46:27;;;;;;;4.85;3.10;;;15.30;99.90;;;;;;4885397;29;20050;-68
2021/08/30 06:48:54;;;;;;;4.53;2.72;;;15.40;99.90;;;;;;4894093;29;20036;-68
2021/08/30 06:51:21;;;;;;;4.72;2.97;;;15.50;99.90;;;;;;4885896;29;20544;-68
2021/08/30 06:53:49;;;;;;;4.45;2.63;;;15.60;99.90;;;;;;4894138;29;20040;-68
2021/08/30 06:56:16;;;;;;;4.38;2.80;;;15.70;99.90;;;;;;4893167;29;20052;-68
2021/08/30 06:58:43;;;;;;;3.55;2.50;;;15.60;99.90;;;;;;4893665;29;20147;-68
2021/08/30 07:01:11;;;;;;;3.90;2.53;;;15.60;99.90;;;;;;4895358;29;20080;-68
2021/08/30 07:03:38;;;;;;;4.30;2.50;;;15.60;99.90;;;;;;4893386;29;20054;-66
2021/08/30 07:06:06;;;;;;;4.25;2.40;;;15.60;99.90;;;;;;4891457;29;20052;-67
2021/08/30 07:08:33;;;;;;;4.13;2.35;;;15.60;99.90;;;;;;4890395;29;20067;-67
2021/08/30 07:11:00;;;;;;;4.40;2.03;;;15.70;99.90;;;;;;4894895;29;20053;-67
2021/08/30 07:13:28;;;;;;;3.72;2.60;;;15.80;99.90;;;;;;4894587;29;20135;-67
2021/08/30 07:15:59;;;;;;;3.00;2.10;;;15.90;99.90;;;;;;4895883;29;20048;-67
2021/08/30 07:18:28;;;;;;;6.35;2.50;;;16.10;99.90;;;;;;4893280;29;20503;-67
2021/08/30 07:20:56;;;;;;;4.53;2.70;;;16.20;99.90;;;;;;4878577;29;20056;-67
2021/08/30 07:23:24;;;;;;;7.07;3.47;;;16.40;99.90;;;;;;4888190;29;20059;-67
2021/08/30 07:25:52;;;;;;;5.65;2.67;;;16.60;99.90;;;;;;4891595;29;20616;-67
2021/08/30 07:28:19;;;;;;;4.78;2.45;;;16.70;99.90;;;;;;4894313;29;20091;-67
2021/08/30 07:30:48;;;;;;;4.13;2.28;;;16.70;99.90;;;;;;4895397;29;20064;-67
2021/08/30 07:33:15;;;;;;;6.45;2.85;;;16.70;99.90;;;;;;4883015;29;20497;-67
2021/08/30 07:35:42;;;;;;;3.28;1.92;;;16.60;99.90;;;;;;4889644;29;20528;-67
2021/08/30 07:38:10;;;;;;;3.05;1.60;;;16.60;99.90;;;;;;4883213;29;20510;-67
2021/08/30 07:40:37;;;;;;;2.83;1.50;;;16.40;99.90;;;;;;4887568;29;20048;-67
2021/08/30 07:43:04;;;;;;;3.08;1.80;;;16.40;99.90;;;;;;4890489;29;20155;-67
2021/08/30 07:45:32;;;;;;;4.15;1.60;;;16.40;99.90;;;;;;4876180;29;20044;-67
2021/08/30 07:47:59;;;;;;;6.28;1.85;;;16.40;99.90;;;;;;4893723;29;20170;-67
2021/08/30 07:50:26;;;;;;;3.08;1.52;;;16.30;99.90;;;;;;4891404;29;20055;-67
2021/08/30 07:52:54;;;;;;;3.60;1.95;;;16.30;99.90;;;;;;4886814;29;20135;-67
2021/08/30 07:55:21;;;;;;;4.45;1.73;;;16.30;99.90;;;;;;4892915;29;20115;-67
2021/08/30 07:57:48;;;;;;;2.20;1.48;;;16.40;99.90;;;;;;4892077;29;20048;-67
2021/08/30 08:00:16;;;;;;;2.67;1.60;;;16.60;99.90;;;;;;4887854;29;20052;-67
2021/08/30 08:02:43;;;;;;;3.28;1.60;;;16.70;99.90;;;;;;4890042;29;20063;-67
2021/08/30 08:05:11;;;;;;;2.13;1.35;;;16.90;99.90;;;;;;4890354;29;20065;-67
2021/08/30 08:07:39;;;;;;;2.90;1.40;;;17.00;99.90;;;;;;4884736;29;20072;-67
2021/08/30 08:10:07;;;;;;;2.28;1.30;;;17.20;99.90;;;;;;4891554;29;20053;-67
2021/08/30 08:12:34;;;;;;;2.63;1.20;;;17.40;99.90;;;;;;4894689;29;20049;-68
2021/08/30 08:15:03;;;;;;;3.08;1.60;;;17.50;99.90;;;;;;4883627;29;20084;-68
2021/08/30 08:17:30;;;;;;;2.70;1.65;;;17.50;99.90;;;;;;4891979;29;20040;-68
2021/08/30 08:19:57;;;;;;;2.47;1.42;;;17.40;99.90;;;;;;4892520;29;20055;-67
2021/08/30 08:22:42;;;;;;;2.33;1.35;;;17.30;99.90;;;;;;4893687;29;20503;-67
2021/08/30 08:25:10;;;;;;;5.93;3.58;;;17.30;99.90;;;;;;4885987;29;20411;-67
2021/08/30 08:27:38;;;;;;;2.88;1.80;;;17.30;99.90;;;;;;4889833;29;20061;-67
2021/08/30 08:30:07;;;;;;;3.65;1.67;;;17.20;99.90;;;;;;4891404;29;20052;-67
2021/08/30 08:32:34;;;;;;;3.53;1.60;;;17.20;99.90;;;;;;4901287;29;20048;-68
2021/08/30 08:35:03;;;;;;;2.63;1.55;;;17.20;99.90;;;;;;4891623;29;20463;-67
2021/08/30 08:37:31;;;;;;;3.65;1.40;;;17.10;99.90;;;;;;4890575;29;20045;-68
2021/08/30 08:39:58;;;;;;;5.20;1.70;;;17.00;99.90;;;;;;4891914;29;20050;-67
2021/08/30 08:42:25;;;;;;;3.20;1.70;;;16.90;99.90;;;;;;4878419;29;20075;-67
2021/08/30 08:44:53;;;;;;;3.55;2.00;;;16.90;99.90;;;;;;4892659;29;20044;-67
2021/08/30 08:47:20;;;;;;;3.47;2.00;;;16.80;99.90;;;;;;4892656;29;20387;-67
2021/08/30 08:49:51;;;;;;;3.00;1.70;;;16.70;99.90;;;;;;4890576;29;20044;-67
2021/08/30 08:52:23;;;;;;;2.75;1.50;;;16.70;99.90;;;;;;4885653;29;20107;-67
2021/08/30 08:54:55;;;;;;;3.08;1.70;;;16.90;99.90;;;;;;4892746;29;20047;-67
2021/08/30 08:57:23;;;;;;;3.13;1.20;;;17.10;99.90;;;;;;4891674;29;20048;-67
2021/08/30 08:59:58;;;;;;;2.40;1.30;;;17.40;99.90;;;;;;4893132;29;20510;-68
2021/08/30 09:02:27;;;;;;;2.25;1.25;;;17.70;99.90;;;;;;4893289;29;20072;-67
2021/08/30 09:04:57;;;;;;;3.90;1.23;;;17.90;99.90;;;;;;4892498;29;20049;-67
2021/08/30 09:07:41;;;;;;;2.35;1.10;;;18.30;99.90;;;;;;4890313;29;20049;-67
2021/08/30 09:10:16;;;;;;;0.63;0.50;;;18.90;99.90;;;;;;4879295;29;20076;-68
2021/08/30 09:12:44;;;;;;;2.20;0.43;;;19.50;99.90;;;;;;4907106;29;20132;-68
2021/08/30 09:15:20;;;;;;;1.23;0.60;;;19.90;99.90;;;;;;4893271;29;20049;-68
2021/08/30 09:17:55;;;;;;;0.82;0.40;;;20.40;99.90;;;;;;4892358;29;20047;-67
2021/08/30 09:20:25;;;;;;;0.40;0.40;;;20.80;99.90;;;;;;4890415;29;20044;-68
2021/08/30 09:22:53;;;;;;;0.70;0.47;;;21.10;99.90;;;;;;4880593;29;20045;-68
2021/08/30 09:25:21;;;;;;;1.73;0.95;;;21.30;99.90;;;;;;4906174;29;20041;-68
2021/08/30 09:27:51;;;;;;;1.63;0.70;;;21.30;99.90;;;;;;4892025;29;20051;-68
2021/08/30 09:30:25;;;;;;;0.85;0.57;;;21.50;99.90;;;;;;4892711;29;20128;-68
2021/08/30 09:32:53;;;;;;;1.48;0.52;;;21.80;99.90;;;;;;4888426;29;20128;-68
2021/08/30 09:35:21;;;;;;;1.00;0.60;;;22.20;99.90;;;;;;4877725;29;20053;-68
2021/08/30 09:37:49;;;;;;;1.52;0.73;;;22.20;99.90;;;;;;4891455;29;20517;-68
2021/08/30 09:40:19;;;;;;;1.83;0.70;;;22.60;99.90;;;;;;4892342;29;20503;-68
2021/08/30 09:42:52;;;;;;;0.45;0.45;;;22.50;99.90;;;;;;4888224;29;20051;-68
2021/08/30 09:45:21;;;;;;;0.85;0.57;;;22.60;99.90;;;;;;4891508;29;20055;-68
2021/08/30 09:47:57;;;;;;;1.92;0.95;;;22.30;99.90;;;;;;4893270;29;20044;-68
2021/08/30 09:50:33;;;;;;;2.22;0.70;;;22.30;99.90;;;;;;4890590;29;20045;-68
2021/08/30 09:53:03;;;;;;;1.52;0.80;;;22.50;99.90;;;;;;4887159;29;20044;-68
2021/08/30 09:55:32;;;;;;;1.33;0.75;;;22.40;99.90;;;;;;4891202;29;20064;-68
2021/08/30 09:58:00;;;;;;;1.25;0.60;;;22.10;99.90;;;;;;4890982;29;20050;-68
2021/08/30 10:00:27;;;;;;;1.20;0.60;;;22.20;99.90;;;;;;4874662;29;20135;-68
2021/08/30 10:02:59;;;;;;;1.25;0.75;;;22.40;99.90;;;;;;4882113;29;20093;-68
2021/08/30 10:05:29;;;;;;;2.15;0.70;;;22.50;99.90;;;;;;4887875;29;20047;-68
2021/08/30 10:08:00;;;;;;;1.67;0.82;;;22.40;99.90;;;;;;4883629;29;20105;-68
2021/08/30 10:10:28;;;;;;;0.98;0.60;;;22.60;99.90;;;;;;4890410;29;20527;-68
2021/08/30 10:12:56;;;;;;;1.83;0.80;;;22.80;99.90;;;;;;4884196;29;20600;-68
2021/08/30 10:15:27;;;;;;;3.10;0.80;;;22.80;99.90;;;;;;4892976;29;20547;-68
2021/08/30 10:17:57;;;;;;;0.70;0.50;;;23.00;99.90;;;;;;4900065;29;20048;-68
2021/08/30 10:20:28;;;;;;;1.55;0.73;;;22.80;99.90;;;;;;4894615;29;20060;-68
2021/08/30 10:23:09;;;;;;;1.40;0.80;;;22.70;99.90;;;;;;4886595;29;20048;-67
2021/08/30 10:25:39;;;;;;;1.65;0.63;;;22.10;99.90;;;;;;4894917;29;20048;-68
2021/08/30 10:28:12;;;;;;;2.00;0.70;;;21.50;99.90;;;;;;4895059;29;20047;-67
2021/08/30 10:30:52;;;;;;;5.28;2.17;;;20.80;99.90;;;;;;4909522;29;20119;-68
2021/08/30 10:33:23;;;;;;;1.67;0.80;;;20.50;99.90;;;;;;4896827;29;20076;-67
2021/08/30 10:35:51;;;;;;;4.27;2.40;;;20.40;99.90;;;;;;4892175;29;20068;-68
2021/08/30 10:38:21;;;;;;;2.90;1.40;;;20.50;99.90;;;;;;4894669;29;20188;-67
2021/08/30 10:40:53;;;;;;;2.67;0.93;;;20.70;99.90;;;;;;4893847;29;20433;-67
2021/08/30 10:43:28;;;;;;;2.47;1.00;;;20.90;99.90;;;;;;4895906;29;20076;-68
2021/08/30 10:45:57;;;;;;;1.73;0.90;;;20.90;99.90;;;;;;4891558;29;20044;-68
2021/08/30 10:48:39;;;;;;;2.47;0.77;;;20.90;99.90;;;;;;4886620;29;20148;-68
2021/08/30 10:51:36;;;;;;;1.13;0.80;;;20.70;99.90;;;;;;4883246;29;20436;-68
2021/08/30 10:54:13;;;;;;;0.90;0.70;;;20.40;99.90;;;;;;4875713;29;20479;-68
2021/08/30 10:56:41;;;;;;;1.75;0.90;;;20.30;99.90;;;;;;4891188;29;20053;-68
2021/08/30 10:59:11;;;;;;;1.75;0.90;;;20.30;99.90;;;;;;4893909;29;20055;-68
2021/08/30 11:01:54;;;;;;;1.50;0.80;;;20.30;99.90;;;;;;4895859;29;20080;-68
2021/08/30 11:04:30;;;;;;;2.13;1.02;;;20.30;99.90;;;;;;4895096;29;20049;-68
2021/08/30 11:06:58;;;;;;;3.03;1.00;;;20.30;99.90;;;;;;4893416;29;20165;-69
2021/08/30 11:09:26;;;;;;;2.47;1.15;;;20.40;99.90;;;;;;4881516;29;20653;-67
2021/08/30 11:11:54;;;;;;;2.30;1.30;;;20.80;99.90;;;;;;4889143;29;20072;-67
2021/08/30 11:14:21;;;;;;;1.95;0.95;;;21.10;99.90;;;;;;4894741;29;20500;-68
2021/08/30 11:16:55;;;;;;;1.23;1.00;;;21.70;99.90;;;;;;4895031;29;20136;-68
2021/08/30 11:19:24;;;;;;;1.75;0.90;;;22.00;99.90;;;;;;4891924;29;20040;-68
2021/08/30 11:21:58;;;;;;;0.98;0.60;;;22.30;99.90;;;;;;4883783;29;20048;-68
2021/08/30 11:24:28;;;;;;;2.28;0.80;;;22.50;99.90;;;;;;4890227;29;20681;-69
2021/08/30 11:27:09;;;;;;;2.03;0.73;;;22.90;99.90;;;;;;4893965;29;20044;-68
2021/08/30 11:29:57;;;;;;;2.40;0.80;;;23.20;99.90;;;;;;4892085;29;20143;-68
2021/08/30 11:32:27;;;;;;;1.95;0.80;;;23.50;99.90;;;;;;4904042;29;20044;-68
2021/08/30 11:34:56;;;;;;;2.65;0.98;;;23.90;99.90;;;;;;4905860;29;20096;-68
2021/08/30 11:37:25;;;;;;;3.25;0.90;;;24.10;99.90;;;;;;4890001;29;20492;-69
2021/08/30 11:39:57;;;;;;;1.73;0.90;;;24.00;99.90;;;;;;4892984;29;20504;-68
2021/08/30 11:42:33;;;;;;;4.28;1.10;;;23.80;99.90;;;;;;4893809;29;20104;-68
2021/08/30 11:45:07;;;;;;;1.80;1.05;;;23.50;99.90;;;;;;4894416;29;20060;-68
2021/08/30 11:47:35;;;;;;;1.30;0.77;;;23.30;99.90;;;;;;4893199;29;20558;-68
2021/08/30 11:50:09;;;;;;;2.42;0.80;;;23.10;99.90;;;;;;4892640;29;20071;-68
2021/08/30 11:52:41;;;;;;;2.53;1.27;;;23.10;99.90;;;;;;4885670;29;20143;-68
2021/08/30 11:55:12;;;;;;;3.15;0.90;;;23.40;99.90;;;;;;4892494;29;20037;-68
2021/08/30 11:57:59;;;;;;;1.75;1.00;;;23.90;99.90;;;;;;4898476;29;20136;-68
2021/08/30 12:00:29;;;;;;;1.33;0.80;;;24.60;99.90;;;;;;4880151;29;20515;-68
2021/08/30 12:02:59;;;;;;;0.93;0.70;;;24.90;99.90;;;;;;4893244;29;20056;-68
2021/08/30 12:05:32;;;;;;;0.93;0.60;;;25.10;99.90;;;;;;4893119;29;20048;-68
2021/08/30 12:08:00;;;;;;;1.90;0.90;;;24.80;99.90;;;;;;4894493;29;20056;-67
2021/08/30 12:10:29;;;;;;;1.17;0.88;;;24.50;99.90;;;;;;4888548;29;20535;-68
2021/08/30 12:15:36;;;;;;;0.57;0.55;;;23.90;99.90;;;;;;4891814;29;20072;-68
2021/08/30 12:18:04;;;;;;;0.80;0.63;;;23.70;99.90;;;;;;4893489;29;20067;-67
2021/08/30 12:20:44;;;;;;;1.23;0.70;;;23.70;99.90;;;;;;4879336;29;20045;-68
2021/08/30 12:23:18;;;;;;;4.43;1.00;;;23.70;99.90;;;;;;4883295;29;20053;-68
2021/08/30 12:25:48;;;;;;;2.53;1.20;;;23.80;99.90;;;;;;4894207;29;20072;-68
2021/08/30 12:28:16;;;;;;;1.70;0.90;;;24.00;99.90;;;;;;4882306;29;20388;-67
2021/08/30 12:30:46;;;;;;;1.73;0.82;;;24.20;99.90;;;;;;4891335;29;20061;-68
2021/08/30 12:33:21;;;;;;;1.35;0.70;;;24.40;99.90;;;;;;4881892;29;20471;-67
2021/08/30 12:35:50;;;;;;;2.40;0.70;;;24.40;99.90;;;;;;4885823;29;20045;-67
2021/08/30 12:38:21;;;;;;;4.63;0.85;;;24.80;99.90;;;;;;4893017;29;20050;-68
2021/08/30 12:40:51;;;;;;;1.25;0.73;;;24.90;99.90;;;;;;4893004;29;20048;-67
2021/08/30 12:43:20;;;;;;;1.00;0.80;;;25.40;99.90;;;;;;4890921;29;20633;-67
2021/08/30 12:45:49;;;;;;;1.45;0.70;;;26.00;99.90;;;;;;4890587;29;20122;-68
2021/08/30 12:48:20;;;;;;;2.22;1.25;;;26.40;99.90;;;;;;4891537;29;20135;-68
2021/08/30 12:50:49;;;;;;;1.67;0.70;;;26.70;99.90;;;;;;4873478;29;20045;-68
2021/08/30 12:53:18;;;;;;;1.00;0.70;;;26.50;99.90;;;;;;4888003;29;20104;-68
2021/08/30 12:55:46;;;;;;;0.85;0.63;;;26.40;99.90;;;;;;4892235;29;20041;-68
2021/08/30 12:58:13;;;;;;;2.95;0.75;;;26.10;99.90;;;;;;4892023;29;20503;-68
2021/08/30 13:00:43;;;;;;;3.50;0.60;;;26.00;99.90;;;;;;4891276;29;20051;-69
2021/08/30 13:03:11;;;;;;;0.85;0.60;;;25.60;99.90;;;;;;4891955;29;20083;-68
2021/08/30 13:05:40;;;;;;;0.80;0.60;;;25.10;99.90;;;;;;4884383;29;20113;-68